sensor_id;sensor_type;location;lat;lon;timestamp;P1;durP1;ratioP1;P2;durP2;ratioP2
10617;SDS011;5356;43.526;26.534;2023-05-21T00:00:26;9.30;;;6.10;;
10617;SDS011;5356;43.526;26.534;2023-05-21T00:02:52;11.93;;;5.45;;
10617;SDS011;5356;43.526;26.534;2023-05-21T00:05:18;9.27;;;6.03;;
10617;SDS011;5356;43.526;26.534;2023-05-21T00:07:45;7.35;;;6.00;;
10617;SDS011;5356;43.526;26.534;2023-05-21T00:10:11;10.75;;;6.47;;
10617;SDS011;5356;43.526;26.534;2023-05-21T00:12:37;9.32;;;6.70;;
10617;SDS011;5356;43.526;26.534;2023-05-21T00:15:02;8.82;;;6.25;;
10617;SDS011;5356;43.526;26.534;2023-05-21T00:17:28;8.77;;;5.15;;
10617;SDS011;5356;43.526;26.534;2023-05-21T00:19:54;9.23;;;5.75;;
10617;SDS011;5356;43.526;26.534;2023-05-21T00:22:21;12.40;;;5.72;;
10617;SDS011;5356;43.526;26.534;2023-05-21T00:24:46;8.38;;;5.80;;
10617;SDS011;5356;43.526;26.534;2023-05-21T00:27:12;9.15;;;6.50;;
10617;SDS011;5356;43.526;26.534;2023-05-21T00:29:38;8.82;;;5.80;;
10617;SDS011;5356;43.526;26.534;2023-05-21T00:32:03;8.05;;;5.93;;
10617;SDS011;5356;43.526;26.534;2023-05-21T00:34:29;8.93;;;6.00;;
10617;SDS011;5356;43.526;26.534;2023-05-21T00:36:55;9.75;;;6.35;;
10617;SDS011;5356;43.526;26.534;2023-05-21T00:39:21;9.80;;;6.20;;
10617;SDS011;5356;43.526;26.534;2023-05-21T00:41:47;8.50;;;5.65;;
10617;SDS011;5356;43.526;26.534;2023-05-21T00:44:13;9.18;;;6.13;;
10617;SDS011;5356;43.526;26.534;2023-05-21T00:46:40;8.00;;;5.30;;
10617;SDS011;5356;43.526;26.534;2023-05-21T00:49:08;12.20;;;6.50;;
10617;SDS011;5356;43.526;26.534;2023-05-21T00:51:34;9.32;;;5.75;;
10617;SDS011;5356;43.526;26.534;2023-05-21T00:54:00;8.18;;;6.40;;
10617;SDS011;5356;43.526;26.534;2023-05-21T00:56:26;8.27;;;5.65;;
10617;SDS011;5356;43.526;26.534;2023-05-21T00:58:55;9.30;;;5.80;;
10617;SDS011;5356;43.526;26.534;2023-05-21T01:01:21;10.85;;;6.47;;
10617;SDS011;5356;43.526;26.534;2023-05-21T01:03:51;8.68;;;6.05;;
10617;SDS011;5356;43.526;26.534;2023-05-21T01:06:18;9.20;;;6.28;;
10617;SDS011;5356;43.526;26.534;2023-05-21T01:08:45;11.70;;;6.18;;
10617;SDS011;5356;43.526;26.534;2023-05-21T01:11:10;10.82;;;6.15;;
10617;SDS011;5356;43.526;26.534;2023-05-21T01:13:38;14.10;;;6.90;;
10617;SDS011;5356;43.526;26.534;2023-05-21T01:16:05;8.45;;;5.97;;
10617;SDS011;5356;43.526;26.534;2023-05-21T01:18:32;10.45;;;6.35;;
10617;SDS011;5356;43.526;26.534;2023-05-21T01:20:59;10.23;;;6.40;;
10617;SDS011;5356;43.526;26.534;2023-05-21T01:23:26;9.40;;;6.45;;
10617;SDS011;5356;43.526;26.534;2023-05-21T01:25:53;10.20;;;6.13;;
10617;SDS011;5356;43.526;26.534;2023-05-21T01:28:18;7.97;;;6.15;;
10617;SDS011;5356;43.526;26.534;2023-05-21T01:30:44;10.77;;;5.75;;
10617;SDS011;5356;43.526;26.534;2023-05-21T01:33:17;9.13;;;6.07;;
10617;SDS011;5356;43.526;26.534;2023-05-21T01:38:36;9.90;;;5.75;;
10617;SDS011;5356;43.526;26.534;2023-05-21T01:41:07;8.25;;;5.95;;
10617;SDS011;5356;43.526;26.534;2023-05-21T01:43:38;7.57;;;6.03;;
10617;SDS011;5356;43.526;26.534;2023-05-21T01:46:06;7.45;;;6.05;;
10617;SDS011;5356;43.526;26.534;2023-05-21T01:48:34;8.25;;;5.82;;
10617;SDS011;5356;43.526;26.534;2023-05-21T01:51:01;10.48;;;6.00;;
10617;SDS011;5356;43.526;26.534;2023-05-21T01:53:29;7.97;;;5.80;;
10617;SDS011;5356;43.526;26.534;2023-05-21T01:55:55;10.15;;;5.95;;
10617;SDS011;5356;43.526;26.534;2023-05-21T01:58:20;10.50;;;6.50;;
10617;SDS011;5356;43.526;26.534;2023-05-21T02:00:47;8.68;;;6.35;;
10617;SDS011;5356;43.526;26.534;2023-05-21T02:03:15;11.73;;;7.03;;
10617;SDS011;5356;43.526;26.534;2023-05-21T02:05:41;9.13;;;6.10;;
10617;SDS011;5356;43.526;26.534;2023-05-21T02:08:06;11.05;;;6.43;;
10617;SDS011;5356;43.526;26.534;2023-05-21T02:10:32;10.10;;;6.57;;
10617;SDS011;5356;43.526;26.534;2023-05-21T02:12:58;9.90;;;5.95;;
10617;SDS011;5356;43.526;26.534;2023-05-21T02:15:24;12.93;;;6.32;;
10617;SDS011;5356;43.526;26.534;2023-05-21T02:17:49;9.48;;;6.30;;
10617;SDS011;5356;43.526;26.534;2023-05-21T02:20:15;9.70;;;6.30;;
10617;SDS011;5356;43.526;26.534;2023-05-21T02:22:42;8.60;;;6.47;;
10617;SDS011;5356;43.526;26.534;2023-05-21T02:25:09;11.40;;;6.50;;
10617;SDS011;5356;43.526;26.534;2023-05-21T02:27:36;7.60;;;5.72;;
10617;SDS011;5356;43.526;26.534;2023-05-21T02:30:03;9.35;;;5.90;;
10617;SDS011;5356;43.526;26.534;2023-05-21T02:32:29;7.50;;;5.68;;
10617;SDS011;5356;43.526;26.534;2023-05-21T02:34:59;9.70;;;6.25;;
10617;SDS011;5356;43.526;26.534;2023-05-21T02:37:25;10.68;;;6.07;;
10617;SDS011;5356;43.526;26.534;2023-05-21T02:39:54;12.88;;;6.70;;
10617;SDS011;5356;43.526;26.534;2023-05-21T02:42:23;7.78;;;6.15;;
10617;SDS011;5356;43.526;26.534;2023-05-21T02:44:49;10.85;;;6.65;;
10617;SDS011;5356;43.526;26.534;2023-05-21T02:47:15;11.32;;;6.25;;
10617;SDS011;5356;43.526;26.534;2023-05-21T02:49:41;9.43;;;6.32;;
10617;SDS011;5356;43.526;26.534;2023-05-21T02:52:06;8.73;;;5.97;;
10617;SDS011;5356;43.526;26.534;2023-05-21T02:54:32;8.90;;;6.05;;
10617;SDS011;5356;43.526;26.534;2023-05-21T02:56:57;8.80;;;6.03;;
10617;SDS011;5356;43.526;26.534;2023-05-21T02:59:22;9.75;;;6.68;;
10617;SDS011;5356;43.526;26.534;2023-05-21T03:01:48;7.90;;;5.82;;
10617;SDS011;5356;43.526;26.534;2023-05-21T03:04:14;10.27;;;6.45;;
10617;SDS011;5356;43.526;26.534;2023-05-21T03:06:41;8.43;;;5.88;;
10617;SDS011;5356;43.526;26.534;2023-05-21T03:09:07;9.82;;;6.40;;
10617;SDS011;5356;43.526;26.534;2023-05-21T03:11:32;10.68;;;6.30;;
10617;SDS011;5356;43.526;26.534;2023-05-21T03:13:58;11.07;;;6.30;;
10617;SDS011;5356;43.526;26.534;2023-05-21T03:16:23;11.15;;;6.63;;
10617;SDS011;5356;43.526;26.534;2023-05-21T03:18:48;11.60;;;7.22;;
10617;SDS011;5356;43.526;26.534;2023-05-21T03:21:14;11.23;;;6.03;;
10617;SDS011;5356;43.526;26.534;2023-05-21T03:23:40;10.20;;;6.05;;
10617;SDS011;5356;43.526;26.534;2023-05-21T03:26:06;9.75;;;6.28;;
10617;SDS011;5356;43.526;26.534;2023-05-21T03:28:33;10.68;;;7.07;;
10617;SDS011;5356;43.526;26.534;2023-05-21T03:30:59;10.20;;;6.47;;
10617;SDS011;5356;43.526;26.534;2023-05-21T03:33:24;11.25;;;6.43;;
10617;SDS011;5356;43.526;26.534;2023-05-21T03:35:50;16.20;;;7.05;;
10617;SDS011;5356;43.526;26.534;2023-05-21T03:38:15;10.30;;;7.10;;
10617;SDS011;5356;43.526;26.534;2023-05-21T03:40:41;10.02;;;7.25;;
10617;SDS011;5356;43.526;26.534;2023-05-21T03:43:06;10.40;;;6.65;;
10617;SDS011;5356;43.526;26.534;2023-05-21T03:45:32;10.75;;;6.93;;
10617;SDS011;5356;43.526;26.534;2023-05-21T03:47:57;13.65;;;7.25;;
10617;SDS011;5356;43.526;26.534;2023-05-21T03:50:23;10.80;;;7.30;;
10617;SDS011;5356;43.526;26.534;2023-05-21T03:52:48;11.20;;;7.60;;
10617;SDS011;5356;43.526;26.534;2023-05-21T03:55:13;13.10;;;7.15;;
10617;SDS011;5356;43.526;26.534;2023-05-21T03:57:39;11.50;;;6.97;;
10617;SDS011;5356;43.526;26.534;2023-05-21T04:00:06;13.13;;;7.45;;
10617;SDS011;5356;43.526;26.534;2023-05-21T04:02:33;15.30;;;7.28;;
10617;SDS011;5356;43.526;26.534;2023-05-21T04:04:58;10.00;;;6.65;;
10617;SDS011;5356;43.526;26.534;2023-05-21T04:07:24;11.05;;;6.50;;
10617;SDS011;5356;43.526;26.534;2023-05-21T04:09:51;11.50;;;6.78;;
10617;SDS011;5356;43.526;26.534;2023-05-21T04:12:17;11.15;;;7.50;;
10617;SDS011;5356;43.526;26.534;2023-05-21T04:14:44;12.10;;;7.20;;
10617;SDS011;5356;43.526;26.534;2023-05-21T04:17:10;10.77;;;7.35;;
10617;SDS011;5356;43.526;26.534;2023-05-21T04:19:36;10.77;;;7.20;;
10617;SDS011;5356;43.526;26.534;2023-05-21T04:22:03;9.95;;;6.88;;
10617;SDS011;5356;43.526;26.534;2023-05-21T04:24:29;10.57;;;6.97;;
10617;SDS011;5356;43.526;26.534;2023-05-21T04:26:54;11.27;;;6.88;;
10617;SDS011;5356;43.526;26.534;2023-05-21T04:29:21;11.52;;;6.82;;
10617;SDS011;5356;43.526;26.534;2023-05-21T04:31:47;10.77;;;7.40;;
10617;SDS011;5356;43.526;26.534;2023-05-21T04:34:13;11.82;;;6.45;;
10617;SDS011;5356;43.526;26.534;2023-05-21T04:36:42;11.32;;;8.25;;
10617;SDS011;5356;43.526;26.534;2023-05-21T04:39:09;11.68;;;7.28;;
10617;SDS011;5356;43.526;26.534;2023-05-21T04:41:36;11.05;;;7.47;;
10617;SDS011;5356;43.526;26.534;2023-05-21T04:44:07;14.23;;;7.28;;
10617;SDS011;5356;43.526;26.534;2023-05-21T04:46:33;10.35;;;7.55;;
10617;SDS011;5356;43.526;26.534;2023-05-21T04:48:59;13.85;;;7.88;;
10617;SDS011;5356;43.526;26.534;2023-05-21T04:51:28;14.35;;;7.55;;
10617;SDS011;5356;43.526;26.534;2023-05-21T04:53:55;12.90;;;9.48;;
10617;SDS011;5356;43.526;26.534;2023-05-21T04:56:22;9.77;;;7.20;;
10617;SDS011;5356;43.526;26.534;2023-05-21T04:58:51;10.25;;;7.28;;
10617;SDS011;5356;43.526;26.534;2023-05-21T05:01:20;12.20;;;7.32;;
10617;SDS011;5356;43.526;26.534;2023-05-21T05:03:53;11.48;;;6.88;;
10617;SDS011;5356;43.526;26.534;2023-05-21T05:06:18;15.13;;;7.22;;
10617;SDS011;5356;43.526;26.534;2023-05-21T05:08:45;12.57;;;7.10;;
10617;SDS011;5356;43.526;26.534;2023-05-21T05:11:11;9.43;;;7.07;;
10617;SDS011;5356;43.526;26.534;2023-05-21T05:13:38;13.68;;;8.18;;
10617;SDS011;5356;43.526;26.534;2023-05-21T05:16:05;12.75;;;7.20;;
10617;SDS011;5356;43.526;26.534;2023-05-21T05:18:31;11.18;;;7.45;;
10617;SDS011;5356;43.526;26.534;2023-05-21T05:20:58;9.50;;;7.50;;
10617;SDS011;5356;43.526;26.534;2023-05-21T05:23:23;10.90;;;7.82;;
10617;SDS011;5356;43.526;26.534;2023-05-21T05:25:49;10.85;;;7.70;;
10617;SDS011;5356;43.526;26.534;2023-05-21T05:28:14;10.25;;;7.03;;
10617;SDS011;5356;43.526;26.534;2023-05-21T05:30:39;12.57;;;7.68;;
10617;SDS011;5356;43.526;26.534;2023-05-21T05:33:05;13.38;;;8.75;;
10617;SDS011;5356;43.526;26.534;2023-05-21T05:35:30;11.73;;;8.32;;
10617;SDS011;5356;43.526;26.534;2023-05-21T05:37:56;12.02;;;7.93;;
10617;SDS011;5356;43.526;26.534;2023-05-21T05:40:22;14.20;;;6.93;;
10617;SDS011;5356;43.526;26.534;2023-05-21T05:42:47;10.38;;;7.30;;
10617;SDS011;5356;43.526;26.534;2023-05-21T05:45:13;10.10;;;7.05;;
10617;SDS011;5356;43.526;26.534;2023-05-21T05:47:39;13.00;;;7.80;;
10617;SDS011;5356;43.526;26.534;2023-05-21T05:50:04;10.80;;;6.90;;
10617;SDS011;5356;43.526;26.534;2023-05-21T05:52:30;11.73;;;7.00;;
10617;SDS011;5356;43.526;26.534;2023-05-21T05:54:55;7.47;;;6.40;;
10617;SDS011;5356;43.526;26.534;2023-05-21T05:57:21;12.15;;;7.15;;
10617;SDS011;5356;43.526;26.534;2023-05-21T05:59:46;9.10;;;7.18;;
10617;SDS011;5356;43.526;26.534;2023-05-21T06:02:12;11.25;;;7.07;;
10617;SDS011;5356;43.526;26.534;2023-05-21T06:04:37;10.80;;;6.65;;
10617;SDS011;5356;43.526;26.534;2023-05-21T06:07:03;11.15;;;6.82;;
10617;SDS011;5356;43.526;26.534;2023-05-21T06:09:28;10.75;;;7.00;;
10617;SDS011;5356;43.526;26.534;2023-05-21T06:11:54;10.73;;;7.22;;
10617;SDS011;5356;43.526;26.534;2023-05-21T06:14:19;11.27;;;6.32;;
10617;SDS011;5356;43.526;26.534;2023-05-21T06:16:45;10.85;;;6.68;;
10617;SDS011;5356;43.526;26.534;2023-05-21T06:19:10;7.75;;;6.20;;
10617;SDS011;5356;43.526;26.534;2023-05-21T06:21:36;7.97;;;5.88;;
10617;SDS011;5356;43.526;26.534;2023-05-21T06:24:01;12.27;;;7.68;;
10617;SDS011;5356;43.526;26.534;2023-05-21T06:26:27;10.68;;;7.63;;
10617;SDS011;5356;43.526;26.534;2023-05-21T06:28:52;11.07;;;7.68;;
10617;SDS011;5356;43.526;26.534;2023-05-21T06:31:18;20.60;;;8.80;;
10617;SDS011;5356;43.526;26.534;2023-05-21T06:33:46;8.65;;;6.78;;
10617;SDS011;5356;43.526;26.534;2023-05-21T06:36:13;11.60;;;7.25;;
10617;SDS011;5356;43.526;26.534;2023-05-21T06:38:39;10.48;;;6.95;;
10617;SDS011;5356;43.526;26.534;2023-05-21T06:41:04;8.40;;;6.18;;
10617;SDS011;5356;43.526;26.534;2023-05-21T06:43:30;8.85;;;6.05;;
10617;SDS011;5356;43.526;26.534;2023-05-21T06:45:56;15.65;;;7.75;;
10617;SDS011;5356;43.526;26.534;2023-05-21T06:48:21;8.05;;;5.78;;
10617;SDS011;5356;43.526;26.534;2023-05-21T06:50:47;7.70;;;4.90;;
10617;SDS011;5356;43.526;26.534;2023-05-21T06:53:12;16.50;;;6.88;;
10617;SDS011;5356;43.526;26.534;2023-05-21T06:55:43;6.75;;;4.85;;
10617;SDS011;5356;43.526;26.534;2023-05-21T06:58:09;9.88;;;5.25;;
10617;SDS011;5356;43.526;26.534;2023-05-21T07:00:35;8.00;;;4.30;;
10617;SDS011;5356;43.526;26.534;2023-05-21T07:03:01;6.60;;;4.40;;
10617;SDS011;5356;43.526;26.534;2023-05-21T07:05:27;6.13;;;3.63;;
10617;SDS011;5356;43.526;26.534;2023-05-21T07:07:53;5.97;;;4.05;;
10617;SDS011;5356;43.526;26.534;2023-05-21T07:10:18;5.35;;;4.30;;
10617;SDS011;5356;43.526;26.534;2023-05-21T07:12:44;7.45;;;4.25;;
10617;SDS011;5356;43.526;26.534;2023-05-21T07:15:10;7.78;;;5.05;;
10617;SDS011;5356;43.526;26.534;2023-05-21T07:17:35;7.68;;;4.97;;
10617;SDS011;5356;43.526;26.534;2023-05-21T07:20:01;15.10;;;5.40;;
10617;SDS011;5356;43.526;26.534;2023-05-21T07:22:30;15.48;;;6.22;;
10617;SDS011;5356;43.526;26.534;2023-05-21T07:24:55;26.17;;;10.10;;
10617;SDS011;5356;43.526;26.534;2023-05-21T07:27:21;9.45;;;6.15;;
10617;SDS011;5356;43.526;26.534;2023-05-21T07:29:46;6.82;;;5.43;;
10617;SDS011;5356;43.526;26.534;2023-05-21T07:32:12;9.40;;;5.05;;
10617;SDS011;5356;43.526;26.534;2023-05-21T07:34:37;7.55;;;4.65;;
10617;SDS011;5356;43.526;26.534;2023-05-21T07:37:03;12.65;;;6.00;;
10617;SDS011;5356;43.526;26.534;2023-05-21T07:39:28;9.23;;;4.38;;
10617;SDS011;5356;43.526;26.534;2023-05-21T07:41:54;43.50;;;13.88;;
10617;SDS011;5356;43.526;26.534;2023-05-21T07:44:20;9.13;;;4.72;;
10617;SDS011;5356;43.526;26.534;2023-05-21T07:46:45;11.68;;;4.22;;
10617;SDS011;5356;43.526;26.534;2023-05-21T07:49:10;8.32;;;3.95;;
10617;SDS011;5356;43.526;26.534;2023-05-21T07:51:40;7.68;;;4.40;;
10617;SDS011;5356;43.526;26.534;2023-05-21T07:54:07;6.65;;;3.92;;
10617;SDS011;5356;43.526;26.534;2023-05-21T07:56:32;9.93;;;4.13;;
10617;SDS011;5356;43.526;26.534;2023-05-21T07:58:58;7.22;;;3.72;;
10617;SDS011;5356;43.526;26.534;2023-05-21T08:01:23;12.70;;;3.80;;
10617;SDS011;5356;43.526;26.534;2023-05-21T08:03:49;24.20;;;10.10;;
10617;SDS011;5356;43.526;26.534;2023-05-21T08:06:14;8.73;;;5.70;;
10617;SDS011;5356;43.526;26.534;2023-05-21T08:08:40;6.55;;;4.15;;
10617;SDS011;5356;43.526;26.534;2023-05-21T08:11:07;6.88;;;4.40;;
10617;SDS011;5356;43.526;26.534;2023-05-21T08:13:32;7.75;;;4.05;;
10617;SDS011;5356;43.526;26.534;2023-05-21T08:15:58;9.65;;;3.95;;
10617;SDS011;5356;43.526;26.534;2023-05-21T08:18:23;6.05;;;4.10;;
10617;SDS011;5356;43.526;26.534;2023-05-21T08:20:49;9.85;;;4.45;;
10617;SDS011;5356;43.526;26.534;2023-05-21T08:23:15;8.02;;;3.95;;
10617;SDS011;5356;43.526;26.534;2023-05-21T08:25:41;7.90;;;3.78;;
10617;SDS011;5356;43.526;26.534;2023-05-21T08:28:06;8.10;;;4.50;;
10617;SDS011;5356;43.526;26.534;2023-05-21T08:30:32;19.38;;;6.95;;
10617;SDS011;5356;43.526;26.534;2023-05-21T08:32:58;8.73;;;3.88;;
10617;SDS011;5356;43.526;26.534;2023-05-21T08:35:23;5.63;;;3.15;;
10617;SDS011;5356;43.526;26.534;2023-05-21T08:37:49;6.20;;;3.83;;
10617;SDS011;5356;43.526;26.534;2023-05-21T08:40:14;5.88;;;4.15;;
10617;SDS011;5356;43.526;26.534;2023-05-21T08:42:44;4.40;;;3.58;;
10617;SDS011;5356;43.526;26.534;2023-05-21T08:45:11;6.63;;;3.47;;
10617;SDS011;5356;43.526;26.534;2023-05-21T08:47:39;5.07;;;3.85;;
10617;SDS011;5356;43.526;26.534;2023-05-21T08:50:08;6.15;;;3.50;;
10617;SDS011;5356;43.526;26.534;2023-05-21T08:52:35;7.57;;;3.42;;
10617;SDS011;5356;43.526;26.534;2023-05-21T08:55:04;22.30;;;5.70;;
10617;SDS011;5356;43.526;26.534;2023-05-21T08:57:31;12.02;;;5.40;;
10617;SDS011;5356;43.526;26.534;2023-05-21T08:59:57;38.00;;;7.97;;
10617;SDS011;5356;43.526;26.534;2023-05-21T09:02:23;15.32;;;5.90;;
10617;SDS011;5356;43.526;26.534;2023-05-21T09:04:54;17.63;;;5.85;;
10617;SDS011;5356;43.526;26.534;2023-05-21T09:07:25;8.63;;;4.05;;
10617;SDS011;5356;43.526;26.534;2023-05-21T09:10:29;7.35;;;3.63;;
10617;SDS011;5356;43.526;26.534;2023-05-21T09:12:50;10.70;;;7.65;;
10617;SDS011;5356;43.526;26.534;2023-05-21T09:15:15;5.18;;;3.28;;
10617;SDS011;5356;43.526;26.534;2023-05-21T09:17:41;8.65;;;3.42;;
10617;SDS011;5356;43.526;26.534;2023-05-21T09:22:48;4.50;;;2.85;;
10617;SDS011;5356;43.526;26.534;2023-05-21T09:25:15;6.95;;;3.90;;
10617;SDS011;5356;43.526;26.534;2023-05-21T09:27:44;4.72;;;3.90;;
10617;SDS011;5356;43.526;26.534;2023-05-21T09:30:13;5.20;;;3.20;;
10617;SDS011;5356;43.526;26.534;2023-05-21T09:32:40;7.15;;;3.50;;
10617;SDS011;5356;43.526;26.534;2023-05-21T09:35:09;7.82;;;4.53;;
10617;SDS011;5356;43.526;26.534;2023-05-21T09:37:42;4.25;;;3.15;;
10617;SDS011;5356;43.526;26.534;2023-05-21T09:40:15;4.38;;;3.47;;
10617;SDS011;5356;43.526;26.534;2023-05-21T09:42:43;5.88;;;3.53;;
10617;SDS011;5356;43.526;26.534;2023-05-21T09:45:10;5.43;;;4.03;;
10617;SDS011;5356;43.526;26.534;2023-05-21T09:47:40;4.90;;;3.53;;
10617;SDS011;5356;43.526;26.534;2023-05-21T09:50:08;7.50;;;3.33;;
10617;SDS011;5356;43.526;26.534;2023-05-21T09:52:35;6.57;;;3.60;;
10617;SDS011;5356;43.526;26.534;2023-05-21T09:55:02;4.28;;;3.22;;
10617;SDS011;5356;43.526;26.534;2023-05-21T09:57:30;6.38;;;3.55;;
10617;SDS011;5356;43.526;26.534;2023-05-21T09:59:56;5.80;;;3.70;;
10617;SDS011;5356;43.526;26.534;2023-05-21T10:02:22;3.42;;;2.95;;
10617;SDS011;5356;43.526;26.534;2023-05-21T10:04:49;4.00;;;2.97;;
10617;SDS011;5356;43.526;26.534;2023-05-21T10:07:16;5.63;;;3.53;;
10617;SDS011;5356;43.526;26.534;2023-05-21T10:09:44;3.85;;;3.33;;
10617;SDS011;5356;43.526;26.534;2023-05-21T10:12:13;8.65;;;3.53;;
10617;SDS011;5356;43.526;26.534;2023-05-21T10:14:41;7.70;;;3.60;;
10617;SDS011;5356;43.526;26.534;2023-05-21T10:17:13;4.90;;;3.17;;
10617;SDS011;5356;43.526;26.534;2023-05-21T10:19:38;4.45;;;3.08;;
10617;SDS011;5356;43.526;26.534;2023-05-21T10:22:05;14.23;;;4.80;;
10617;SDS011;5356;43.526;26.534;2023-05-21T10:24:32;4.70;;;3.25;;
10617;SDS011;5356;43.526;26.534;2023-05-21T10:26:58;3.80;;;3.15;;
10617;SDS011;5356;43.526;26.534;2023-05-21T10:29:26;4.97;;;2.63;;
10617;SDS011;5356;43.526;26.534;2023-05-21T10:31:52;3.13;;;2.78;;
10617;SDS011;5356;43.526;26.534;2023-05-21T10:34:18;5.10;;;2.60;;
10617;SDS011;5356;43.526;26.534;2023-05-21T10:36:45;4.43;;;3.30;;
10617;SDS011;5356;43.526;26.534;2023-05-21T10:39:13;6.25;;;3.25;;
10617;SDS011;5356;43.526;26.534;2023-05-21T10:41:44;4.50;;;3.25;;
10617;SDS011;5356;43.526;26.534;2023-05-21T10:44:25;6.70;;;3.22;;
10617;SDS011;5356;43.526;26.534;2023-05-21T10:58:05;4.03;;;2.70;;
10617;SDS011;5356;43.526;26.534;2023-05-21T11:00:44;4.07;;;3.13;;
10617;SDS011;5356;43.526;26.534;2023-05-21T11:03:11;4.40;;;2.88;;
10617;SDS011;5356;43.526;26.534;2023-05-21T11:05:54;4.70;;;3.08;;
10617;SDS011;5356;43.526;26.534;2023-05-21T11:08:24;6.57;;;3.42;;
10617;SDS011;5356;43.526;26.534;2023-05-21T11:10:54;4.63;;;3.00;;
10617;SDS011;5356;43.526;26.534;2023-05-21T11:13:23;5.82;;;3.10;;
10617;SDS011;5356;43.526;26.534;2023-05-21T11:19:14;4.68;;;3.05;;
10617;SDS011;5356;43.526;26.534;2023-05-21T11:21:11;5.80;;;3.00;;
10617;SDS011;5356;43.526;26.534;2023-05-21T11:26:20;4.63;;;2.65;;
10617;SDS011;5356;43.526;26.534;2023-05-21T11:28:57;5.55;;;2.80;;
10617;SDS011;5356;43.526;26.534;2023-05-21T11:31:32;4.18;;;2.72;;
10617;SDS011;5356;43.526;26.534;2023-05-21T11:39:41;3.72;;;2.22;;
10617;SDS011;5356;43.526;26.534;2023-05-21T11:42:07;4.13;;;2.53;;
10617;SDS011;5356;43.526;26.534;2023-05-21T11:44:40;4.20;;;2.50;;
10617;SDS011;5356;43.526;26.534;2023-05-21T11:47:12;5.53;;;2.80;;
10617;SDS011;5356;43.526;26.534;2023-05-21T11:49:39;3.25;;;2.35;;
10617;SDS011;5356;43.526;26.534;2023-05-21T11:52:05;4.82;;;2.63;;
10617;SDS011;5356;43.526;26.534;2023-05-21T11:54:32;3.92;;;2.58;;
10617;SDS011;5356;43.526;26.534;2023-05-21T11:57:05;3.45;;;2.78;;
10617;SDS011;5356;43.526;26.534;2023-05-21T11:59:35;2.90;;;2.38;;
10617;SDS011;5356;43.526;26.534;2023-05-21T12:02:01;4.05;;;2.55;;
10617;SDS011;5356;43.526;26.534;2023-05-21T12:04:45;7.13;;;2.67;;
10617;SDS011;5356;43.526;26.534;2023-05-21T12:07:12;4.60;;;2.20;;
10617;SDS011;5356;43.526;26.534;2023-05-21T12:09:39;4.05;;;2.78;;
10617;SDS011;5356;43.526;26.534;2023-05-21T12:12:08;4.45;;;2.50;;
10617;SDS011;5356;43.526;26.534;2023-05-21T12:14:34;6.78;;;2.38;;
10617;SDS011;5356;43.526;26.534;2023-05-21T12:17:01;4.30;;;2.70;;
10617;SDS011;5356;43.526;26.534;2023-05-21T12:19:27;5.47;;;2.45;;
10617;SDS011;5356;43.526;26.534;2023-05-21T12:21:56;5.03;;;2.63;;
10617;SDS011;5356;43.526;26.534;2023-05-21T12:24:23;4.32;;;2.42;;
10617;SDS011;5356;43.526;26.534;2023-05-21T12:26:49;5.30;;;2.42;;
10617;SDS011;5356;43.526;26.534;2023-05-21T12:29:16;4.80;;;2.58;;
10617;SDS011;5356;43.526;26.534;2023-05-21T12:31:47;3.97;;;2.70;;
10617;SDS011;5356;43.526;26.534;2023-05-21T12:34:13;4.15;;;2.53;;
10617;SDS011;5356;43.526;26.534;2023-05-21T12:36:42;3.83;;;2.75;;
10617;SDS011;5356;43.526;26.534;2023-05-21T12:39:15;4.63;;;3.10;;
10617;SDS011;5356;43.526;26.534;2023-05-21T12:41:41;5.13;;;2.92;;
10617;SDS011;5356;43.526;26.534;2023-05-21T12:44:07;3.58;;;2.20;;
10617;SDS011;5356;43.526;26.534;2023-05-21T12:46:34;4.22;;;2.70;;
10617;SDS011;5356;43.526;26.534;2023-05-21T12:49:00;3.20;;;2.25;;
10617;SDS011;5356;43.526;26.534;2023-05-21T12:51:36;2.80;;;2.03;;
10617;SDS011;5356;43.526;26.534;2023-05-21T12:54:02;5.13;;;2.40;;
10617;SDS011;5356;43.526;26.534;2023-05-21T12:56:28;2.90;;;2.10;;
10617;SDS011;5356;43.526;26.534;2023-05-21T12:59:11;2.97;;;1.90;;
10617;SDS011;5356;43.526;26.534;2023-05-21T13:01:39;5.22;;;2.22;;
10617;SDS011;5356;43.526;26.534;2023-05-21T13:04:05;3.67;;;2.38;;
10617;SDS011;5356;43.526;26.534;2023-05-21T13:06:40;3.05;;;2.20;;
10617;SDS011;5356;43.526;26.534;2023-05-21T13:09:08;5.07;;;2.00;;
10617;SDS011;5356;43.526;26.534;2023-05-21T13:11:34;3.58;;;2.00;;
10617;SDS011;5356;43.526;26.534;2023-05-21T13:13:59;4.25;;;1.90;;
10617;SDS011;5356;43.526;26.534;2023-05-21T13:16:25;7.88;;;2.10;;
10617;SDS011;5356;43.526;26.534;2023-05-21T13:18:50;5.75;;;2.25;;
10617;SDS011;5356;43.526;26.534;2023-05-21T13:21:16;3.20;;;2.20;;
10617;SDS011;5356;43.526;26.534;2023-05-21T13:23:41;2.00;;;1.60;;
10617;SDS011;5356;43.526;26.534;2023-05-21T13:26:07;3.50;;;1.60;;
10617;SDS011;5356;43.526;26.534;2023-05-21T13:28:33;3.08;;;2.00;;
10617;SDS011;5356;43.526;26.534;2023-05-21T13:30:59;4.10;;;2.15;;
10617;SDS011;5356;43.526;26.534;2023-05-21T13:33:24;3.95;;;2.08;;
10617;SDS011;5356;43.526;26.534;2023-05-21T13:35:50;5.20;;;2.55;;
10617;SDS011;5356;43.526;26.534;2023-05-21T13:38:16;5.38;;;2.47;;
10617;SDS011;5356;43.526;26.534;2023-05-21T13:40:41;4.40;;;2.50;;
10617;SDS011;5356;43.526;26.534;2023-05-21T13:43:07;3.05;;;2.22;;
10617;SDS011;5356;43.526;26.534;2023-05-21T13:45:32;6.13;;;2.33;;
10617;SDS011;5356;43.526;26.534;2023-05-21T13:47:58;4.82;;;2.72;;
10617;SDS011;5356;43.526;26.534;2023-05-21T13:50:23;5.25;;;2.72;;
10617;SDS011;5356;43.526;26.534;2023-05-21T13:52:49;3.75;;;1.85;;
10617;SDS011;5356;43.526;26.534;2023-05-21T13:55:15;3.60;;;2.13;;
10617;SDS011;5356;43.526;26.534;2023-05-21T13:57:41;2.55;;;1.95;;
10617;SDS011;5356;43.526;26.534;2023-05-21T14:00:06;3.70;;;2.33;;
10617;SDS011;5356;43.526;26.534;2023-05-21T14:02:39;5.10;;;2.42;;
10617;SDS011;5356;43.526;26.534;2023-05-21T14:05:05;6.07;;;2.35;;
10617;SDS011;5356;43.526;26.534;2023-05-21T14:07:31;6.55;;;2.35;;
10617;SDS011;5356;43.526;26.534;2023-05-21T14:09:56;3.85;;;2.10;;
10617;SDS011;5356;43.526;26.534;2023-05-21T14:12:22;2.40;;;2.15;;
10617;SDS011;5356;43.526;26.534;2023-05-21T14:14:47;3.53;;;1.83;;
10617;SDS011;5356;43.526;26.534;2023-05-21T14:17:13;4.32;;;2.15;;
10617;SDS011;5356;43.526;26.534;2023-05-21T14:19:39;3.30;;;2.22;;
10617;SDS011;5356;43.526;26.534;2023-05-21T14:22:05;5.32;;;2.28;;
10617;SDS011;5356;43.526;26.534;2023-05-21T14:24:30;2.97;;;1.92;;
10617;SDS011;5356;43.526;26.534;2023-05-21T14:26:56;4.07;;;2.38;;
10617;SDS011;5356;43.526;26.534;2023-05-21T14:29:21;4.78;;;2.60;;
10617;SDS011;5356;43.526;26.534;2023-05-21T14:31:47;2.00;;;1.50;;
10617;SDS011;5356;43.526;26.534;2023-05-21T14:34:12;5.55;;;2.15;;
10617;SDS011;5356;43.526;26.534;2023-05-21T14:36:38;3.88;;;2.10;;
10617;SDS011;5356;43.526;26.534;2023-05-21T14:39:03;4.30;;;2.22;;
10617;SDS011;5356;43.526;26.534;2023-05-21T14:41:29;3.47;;;2.13;;
10617;SDS011;5356;43.526;26.534;2023-05-21T14:43:54;3.35;;;1.77;;
10617;SDS011;5356;43.526;26.534;2023-05-21T14:46:20;3.38;;;2.13;;
10617;SDS011;5356;43.526;26.534;2023-05-21T14:48:46;6.85;;;2.00;;
10617;SDS011;5356;43.526;26.534;2023-05-21T14:51:12;3.03;;;1.80;;
10617;SDS011;5356;43.526;26.534;2023-05-21T14:53:37;5.07;;;2.22;;
10617;SDS011;5356;43.526;26.534;2023-05-21T14:56:04;4.45;;;2.40;;
10617;SDS011;5356;43.526;26.534;2023-05-21T14:58:29;7.45;;;2.25;;
10617;SDS011;5356;43.526;26.534;2023-05-21T15:00:55;4.03;;;2.10;;
10617;SDS011;5356;43.526;26.534;2023-05-21T15:03:20;4.40;;;2.25;;
10617;SDS011;5356;43.526;26.534;2023-05-21T15:05:46;3.22;;;2.55;;
10617;SDS011;5356;43.526;26.534;2023-05-21T15:08:11;6.72;;;1.85;;